createdAt,value
2023-05-14T00:01:28.112Z,72.94
2023-05-14T00:03:54.793Z,73.26
2023-05-14T00:06:21.477Z,72.83
2023-05-14T00:08:47.866Z,73.34
2023-05-14T00:11:14.381Z,73.37
2023-05-14T00:13:40.829Z,73.78
2023-05-14T00:16:07.331Z,74.27
2023-05-14T00:18:34.009Z,74.18
2023-05-14T00:21:00.590Z,73.75
2023-05-14T00:23:26.988Z,74.08
2023-05-14T00:25:53.516Z,74.31
2023-05-14T00:28:20.689Z,74.55
2023-05-14T00:30:48.112Z,74.69
2023-05-14T00:33:15.552Z,74.93
2023-05-14T00:35:42.154Z,74.38
2023-05-14T00:38:09.761Z,75.18
2023-05-14T00:40:36.340Z,74.99
2023-05-14T00:43:02.848Z,75.21
2023-05-14T00:45:31.910Z,74.86
2023-05-14T00:47:58.584Z,75.36
2023-05-14T00:50:25.898Z,75.06
2023-05-14T00:52:53.265Z,75.49
2023-05-14T00:55:20.179Z,76.28
2023-05-14T00:57:46.658Z,76.13
2023-05-14T01:00:13.514Z,76.14
2023-05-14T01:02:40.024Z,76.38
2023-05-14T01:05:08.398Z,76.53
2023-05-14T01:08:07.565Z,76.53
2023-05-14T01:11:03.524Z,76.55
2023-05-14T01:13:44.040Z,76.44
2023-05-14T01:16:14.300Z,76.70
2023-05-14T01:18:43.671Z,77.17
2023-05-14T01:21:34.280Z,77.36
2023-05-14T01:24:00.981Z,77.36
2023-05-14T01:26:28.046Z,77.90
2023-05-14T01:29:00.102Z,77.67
2023-05-14T01:31:28.697Z,78.04
2023-05-14T01:34:00.278Z,77.81
2023-05-14T01:36:28.550Z,78.36
2023-05-14T01:38:56.361Z,78.45
2023-05-14T01:41:25.345Z,78.30
2023-05-14T01:43:52.275Z,78.35
2023-05-14T01:46:19.616Z,78.46
2023-05-14T01:48:46.300Z,79.26
2023-05-14T01:51:14.578Z,78.48
2023-05-14T01:53:41.622Z,78.54
2023-05-14T01:56:08.079Z,78.51
2023-05-14T01:58:34.598Z,78.55
2023-05-14T02:01:01.076Z,78.78
2023-05-14T02:03:27.666Z,79.23
2023-05-14T02:05:54.256Z,78.70
2023-05-14T02:08:21.171Z,79.16
2023-05-14T02:10:48.063Z,79.45
2023-05-14T02:13:14.677Z,79.55
2023-05-14T02:15:41.124Z,79.60
2023-05-14T02:18:07.745Z,79.22
2023-05-14T02:20:34.369Z,79.46
2023-05-14T02:23:01.894Z,79.64
2023-05-14T02:25:28.351Z,79.86
2023-05-14T02:27:54.831Z,79.89
2023-05-14T02:32:48.335Z,79.57
2023-05-14T02:35:14.868Z,80.43
2023-05-14T02:37:41.383Z,79.84
2023-05-14T02:40:08.586Z,80.08
2023-05-14T02:42:35.558Z,80.51
2023-05-14T02:45:02.013Z,80.41
2023-05-14T02:47:28.633Z,80.26
2023-05-14T02:49:55.085Z,80.45
2023-05-14T02:52:21.635Z,80.93
2023-05-14T02:54:48.179Z,80.83
2023-05-14T02:57:14.650Z,81.36
2023-05-14T02:59:41.434Z,81.07
2023-05-14T03:02:08.464Z,81.34
2023-05-14T03:04:35.552Z,81.50
2023-05-14T03:07:01.968Z,81.50
2023-05-14T03:09:28.463Z,81.76
2023-05-14T03:11:55.025Z,81.66
2023-05-14T03:14:21.472Z,81.96
2023-05-14T03:16:48.086Z,81.84
2023-05-14T03:19:14.625Z,82.01
2023-05-14T03:21:42.488Z,81.98
2023-05-14T03:24:09.042Z,82.17
2023-05-14T03:26:35.632Z,82.41
2023-05-14T03:29:02.402Z,82.28
2023-05-14T03:31:28.913Z,82.36
2023-05-14T03:33:56.379Z,82.66
2023-05-14T03:36:23.235Z,82.74
2023-05-14T03:38:49.692Z,82.62
2023-05-14T03:41:17.858Z,82.67
2023-05-14T03:43:44.351Z,82.80
2023-05-14T03:46:10.768Z,83.11
2023-05-14T03:48:37.216Z,83.00
2023-05-14T03:51:04.819Z,82.79
2023-05-14T03:53:31.272Z,83.28
2023-05-14T03:58:39.117Z,83.15
2023-05-14T04:01:05.837Z,83.50
2023-05-14T04:03:32.632Z,83.30
2023-05-14T04:06:00.505Z,83.40
2023-05-14T04:08:26.951Z,83.96
2023-05-14T04:10:56.041Z,83.58
2023-05-14T04:13:23.011Z,83.55
2023-05-14T04:15:49.604Z,83.81
2023-05-14T04:18:17.166Z,83.53
2023-05-14T04:20:43.837Z,84.02
2023-05-14T04:23:10.646Z,83.80
2023-05-14T04:25:37.111Z,84.28
2023-05-14T04:28:03.706Z,84.14
2023-05-14T04:30:30.327Z,83.65
2023-05-14T04:32:56.920Z,83.84
2023-05-14T04:35:25.200Z,84.57
2023-05-14T04:37:52.197Z,84.34
2023-05-14T04:40:19.263Z,84.49
2023-05-14T04:42:45.730Z,84.14
2023-05-14T04:45:13.648Z,83.85
2023-05-14T04:47:40.397Z,84.30
2023-05-14T04:50:09.182Z,84.13
2023-05-14T04:52:35.738Z,84.25
2023-05-14T04:55:02.179Z,84.02
2023-05-14T04:57:28.689Z,83.95
2023-05-14T04:59:55.144Z,83.49
2023-05-14T05:02:21.756Z,83.52
2023-05-14T05:04:48.216Z,83.93
2023-05-14T05:07:14.736Z,83.55
2023-05-14T05:09:43.095Z,83.30
2023-05-14T05:12:09.734Z,82.94
2023-05-14T05:14:36.198Z,82.78
2023-05-14T05:17:02.671Z,81.70
2023-05-14T05:19:39.558Z,81.46
2023-05-14T05:22:10.302Z,81.06
2023-05-14T05:24:36.764Z,80.39
2023-05-14T05:27:03.546Z,80.89
2023-05-14T05:29:30.086Z,80.90
2023-05-14T05:31:56.630Z,80.97
2023-05-14T05:34:23.202Z,81.02
2023-05-14T05:36:49.655Z,80.94
2023-05-14T05:39:16.128Z,80.20
2023-05-14T05:41:43.538Z,81.04
2023-05-14T05:44:10.102Z,80.24
2023-05-14T05:46:36.689Z,80.30
2023-05-14T05:49:03.215Z,80.15
2023-05-14T05:51:30.189Z,80.42
2023-05-14T05:53:56.651Z,80.74
2023-05-14T05:56:23.066Z,81.15
2023-05-14T05:58:49.466Z,81.71
2023-05-14T06:01:15.930Z,80.92
2023-05-14T06:03:42.395Z,80.99
2023-05-14T06:06:08.913Z,80.84
2023-05-14T06:08:35.480Z,81.10
2023-05-14T06:11:02.092Z,81.54
2023-05-14T06:13:28.560Z,80.52
2023-05-14T06:15:54.952Z,80.50
2023-05-14T06:18:21.361Z,81.14
2023-05-14T06:20:47.812Z,80.91
2023-05-14T06:23:14.248Z,80.68
2023-05-14T06:25:40.945Z,80.54
2023-05-14T06:28:07.395Z,80.13
2023-05-14T06:30:33.853Z,79.79
2023-05-14T06:33:00.636Z,79.56
2023-05-14T06:35:27.123Z,77.22
2023-05-14T06:37:53.621Z,75.64
2023-05-14T06:40:20.284Z,74.96
2023-05-14T06:42:46.722Z,74.63
2023-05-14T06:45:13.542Z,73.91
2023-05-14T06:47:40.366Z,73.52
2023-05-14T06:50:08.832Z,72.50
2023-05-14T06:52:37.023Z,69.76
2023-05-14T06:55:03.678Z,68.22
2023-05-14T06:57:31.480Z,68.74
2023-05-14T06:59:57.970Z,67.69
2023-05-14T07:02:26.091Z,66.64
2023-05-14T07:04:52.574Z,67.70
2023-05-14T07:07:21.046Z,68.93
2023-05-14T07:09:47.969Z,69.24
2023-05-14T07:12:14.615Z,66.74
2023-05-14T07:14:41.123Z,63.59
2023-05-14T07:17:07.618Z,64.18
2023-05-14T07:19:41.426Z,63.02
2023-05-14T07:22:07.896Z,63.08
2023-05-14T07:24:34.494Z,63.58
2023-05-14T07:27:01.859Z,63.62
2023-05-14T07:29:30.090Z,63.00
2023-05-14T07:31:58.848Z,61.75
2023-05-14T07:34:30.522Z,61.48
2023-05-14T07:37:03.866Z,60.92
2023-05-14T07:43:00.829Z,60.29
2023-05-14T07:45:27.753Z,60.93
2023-05-14T07:47:54.685Z,61.96
2023-05-14T07:50:22.361Z,61.72
2023-05-14T07:52:49.382Z,59.07
2023-05-14T07:55:15.963Z,59.56
2023-05-14T07:57:42.414Z,60.44
2023-05-14T08:00:09.297Z,60.34
2023-05-14T08:02:42.515Z,60.38
2023-05-14T08:05:10.465Z,59.24
2023-05-14T08:07:38.263Z,58.31
2023-05-14T08:10:06.668Z,59.19
2023-05-14T08:12:41.110Z,60.20
2023-05-14T08:15:20.104Z,61.59
2023-05-14T08:18:11.955Z,60.16
2023-05-14T08:21:05.837Z,60.12
2023-05-14T08:23:37.447Z,59.91
2023-05-14T08:26:03.935Z,59.82
2023-05-14T08:28:30.459Z,58.09
2023-05-14T08:30:56.971Z,57.33
2023-05-14T08:33:23.476Z,56.91
2023-05-14T08:35:53.210Z,56.93
2023-05-14T08:38:19.624Z,56.46
2023-05-14T08:40:53.751Z,56.33
2023-05-14T08:43:29.574Z,56.03
2023-05-14T08:48:49.963Z,55.98
2023-05-14T08:51:16.539Z,55.00
2023-05-14T08:53:43.487Z,54.66
2023-05-14T08:56:10.377Z,53.30
2023-05-14T08:58:37.972Z,53.21
2023-05-14T09:01:06.615Z,53.92
2023-05-14T09:03:34.907Z,53.86
2023-05-14T09:06:02.318Z,53.94
2023-05-14T09:08:29.304Z,54.88
2023-05-14T09:10:55.782Z,53.54
2023-05-14T09:13:22.316Z,55.05
2023-05-14T09:15:51.164Z,51.77
2023-05-14T09:18:17.692Z,51.22
2023-05-14T09:20:44.230Z,50.30
2023-05-14T09:23:10.781Z,51.76
2023-05-14T09:25:40.114Z,52.01
2023-05-14T09:28:08.669Z,51.34
2023-05-14T09:30:37.005Z,49.62
2023-05-14T09:33:04.268Z,49.19
2023-05-14T09:35:32.340Z,50.74
2023-05-14T09:37:58.756Z,50.36
2023-05-14T09:40:25.484Z,48.93
2023-05-14T09:42:52.160Z,48.98
2023-05-14T09:45:18.726Z,49.58
2023-05-14T09:47:45.689Z,49.67
2023-05-14T09:50:12.946Z,48.71
2023-05-14T09:52:39.893Z,48.55
2023-05-14T09:55:07.931Z,49.20
2023-05-14T09:57:35.367Z,48.89
2023-05-14T10:00:02.036Z,47.68
2023-05-14T10:02:37.648Z,48.48
2023-05-14T10:05:06.352Z,48.80
2023-05-14T10:07:41.653Z,48.06
2023-05-14T10:10:12.477Z,47.82
2023-05-14T10:12:40.408Z,47.16
2023-05-14T10:15:16.250Z,47.99
2023-05-14T10:17:48.704Z,48.13
2023-05-14T10:20:18.927Z,46.56
2023-05-14T10:22:46.232Z,46.99
2023-05-14T10:25:12.947Z,46.31
2023-05-14T10:27:40.821Z,45.90
2023-05-14T10:30:14.442Z,46.43
2023-05-14T10:32:42.045Z,46.79
2023-05-14T10:35:20.473Z,46.41
2023-05-14T10:37:47.081Z,46.47
2023-05-14T10:40:14.130Z,44.89
2023-05-14T10:42:43.272Z,44.93
2023-05-14T10:45:14.206Z,43.79
2023-05-14T10:47:46.900Z,45.63
2023-05-14T10:50:15.047Z,44.47
2023-05-14T10:52:43.581Z,43.38
2023-05-14T10:55:13.858Z,44.01
2023-05-14T10:57:43.466Z,43.80
2023-05-14T11:00:11.211Z,42.56
2023-05-14T11:02:40.283Z,44.69
2023-05-14T11:05:09.328Z,43.83
2023-05-14T11:07:41.268Z,44.81
2023-05-14T11:10:12.579Z,43.05
2023-05-14T11:12:41.528Z,44.56
2023-05-14T11:15:13.945Z,43.65
2023-05-14T11:17:42.319Z,42.15
2023-05-14T11:20:09.935Z,43.54
2023-05-14T11:22:37.607Z,42.65
2023-05-14T11:25:04.979Z,41.78
2023-05-14T11:27:33.949Z,44.23
2023-05-14T11:30:01.045Z,42.46
2023-05-14T11:32:27.986Z,43.42
2023-05-14T11:34:54.624Z,44.10
2023-05-14T11:37:21.655Z,42.30
2023-05-14T11:39:53.551Z,42.13
2023-05-14T11:42:21.279Z,43.29
2023-05-14T11:44:49.675Z,43.09
2023-05-14T11:47:18.425Z,42.17
2023-05-14T11:49:45.316Z,44.21
2023-05-14T11:52:22.042Z,44.10
2023-05-14T11:54:50.671Z,43.08
2023-05-14T11:57:19.831Z,43.31
2023-05-14T11:59:49.582Z,43.83
2023-05-14T12:02:18.837Z,47.83
2023-05-14T12:04:53.953Z,46.28
2023-05-14T12:07:20.560Z,45.78
2023-05-14T12:09:49.766Z,47.05
2023-05-14T12:12:21.316Z,44.62
2023-05-14T12:14:49.461Z,44.33
2023-05-14T12:17:16.876Z,44.45
2023-05-14T12:19:45.755Z,44.95
2023-05-14T12:22:15.540Z,46.77
2023-05-14T12:24:43.892Z,45.66
2023-05-14T12:27:10.684Z,46.83
2023-05-14T12:29:41.157Z,46.79
2023-05-14T12:32:09.283Z,46.75
2023-05-14T12:34:39.012Z,44.46
2023-05-14T12:37:06.655Z,45.94
2023-05-14T12:39:34.278Z,46.38
2023-05-14T12:42:01.302Z,46.90
2023-05-14T12:44:28.138Z,46.35
2023-05-14T12:46:55.030Z,48.08
2023-05-14T12:49:21.500Z,46.31
2023-05-14T12:51:47.955Z,46.43
2023-05-14T12:54:15.779Z,45.32
2023-05-14T12:56:42.578Z,45.70
2023-05-14T12:59:09.569Z,45.13
2023-05-14T13:01:37.628Z,45.67
2023-05-14T13:04:05.448Z,45.55
2023-05-14T13:06:32.470Z,46.17
2023-05-14T13:09:01.657Z,46.93
2023-05-14T13:11:30.368Z,47.28
2023-05-14T13:13:57.158Z,46.79
2023-05-14T13:16:23.665Z,48.00
2023-05-14T13:18:50.722Z,47.56
2023-05-14T13:21:17.198Z,48.08
2023-05-14T13:23:43.747Z,48.03
2023-05-14T13:26:10.281Z,47.69
2023-05-14T13:28:36.744Z,47.54
2023-05-14T13:31:14.489Z,47.43
2023-05-14T13:33:42.797Z,47.57
2023-05-14T13:36:10.468Z,46.89
2023-05-14T13:38:37.161Z,46.75
2023-05-14T13:41:03.752Z,47.29
2023-05-14T13:43:31.478Z,47.84
2023-05-14T13:46:00.522Z,46.78
2023-05-14T13:48:27.720Z,47.09
2023-05-14T13:50:54.818Z,45.67
2023-05-14T13:53:22.874Z,46.37
2023-05-14T13:55:49.555Z,48.40
2023-05-14T13:58:16.455Z,48.08
2023-05-14T14:00:43.018Z,47.40
2023-05-14T14:03:09.515Z,46.36
2023-05-14T14:05:38.446Z,47.69
2023-05-14T14:08:22.063Z,48.84
2023-05-14T14:10:51.443Z,48.82
2023-05-14T14:13:17.928Z,47.86
2023-05-14T14:15:45.637Z,48.26
2023-05-14T14:18:13.778Z,48.45
2023-05-14T14:20:40.503Z,47.47
2023-05-14T14:23:07.438Z,47.75
2023-05-14T14:25:33.959Z,48.23
2023-05-14T14:28:01.013Z,47.36
2023-05-14T14:30:27.520Z,47.74
2023-05-14T14:32:57.081Z,46.09
2023-05-14T14:35:24.042Z,46.79
2023-05-14T14:37:53.370Z,45.70
2023-05-14T14:40:19.930Z,46.21
2023-05-14T14:42:46.426Z,44.78
2023-05-14T14:45:13.010Z,45.74
2023-05-14T14:47:43.803Z,47.15
2023-05-14T14:50:10.449Z,44.06
2023-05-14T14:52:36.984Z,44.55
2023-05-14T14:55:03.763Z,44.60
2023-05-14T14:57:36.153Z,45.14
2023-05-14T15:00:06.886Z,45.39
2023-05-14T15:02:33.636Z,46.91
2023-05-14T15:05:00.272Z,46.81
2023-05-14T15:07:26.680Z,47.20
2023-05-14T15:09:53.195Z,47.58
2023-05-14T15:12:19.681Z,46.81
2023-05-14T15:14:46.096Z,47.52
2023-05-14T15:17:13.012Z,49.00
2023-05-14T15:19:39.445Z,48.36
2023-05-14T15:22:05.908Z,48.20
2023-05-14T15:24:32.417Z,49.10
2023-05-14T15:27:00.588Z,49.24
2023-05-14T15:29:28.650Z,49.06
2023-05-14T15:31:55.201Z,48.70
2023-05-14T15:34:21.734Z,49.17
2023-05-14T15:36:49.569Z,48.81
2023-05-14T15:39:16.019Z,48.21
2023-05-14T15:41:42.531Z,48.39
2023-05-14T15:44:09.116Z,48.81
2023-05-14T15:46:37.808Z,49.63
2023-05-14T15:49:04.377Z,47.75
2023-05-14T15:51:31.793Z,49.21
2023-05-14T15:53:58.295Z,49.69
2023-05-14T15:56:24.799Z,48.20
2023-05-14T15:58:51.364Z,48.20
2023-05-14T16:01:19.034Z,49.32
2023-05-14T16:03:45.604Z,50.67
2023-05-14T16:06:13.935Z,50.28
2023-05-14T16:08:40.560Z,51.34
2023-05-14T16:11:07.783Z,51.28
2023-05-14T16:13:35.735Z,50.77
2023-05-14T16:16:02.376Z,50.15
2023-05-14T16:18:31.016Z,49.64
2023-05-14T16:21:00.030Z,50.43
2023-05-14T16:23:27.215Z,50.69
2023-05-14T16:25:53.677Z,52.80
2023-05-14T16:28:23.364Z,53.67
2023-05-14T16:30:49.810Z,53.02
2023-05-14T16:33:16.375Z,55.33
2023-05-14T16:35:51.072Z,54.96
2023-05-14T16:38:19.135Z,54.41
2023-05-14T16:40:45.685Z,54.30
2023-05-14T16:43:12.801Z,54.11
2023-05-14T16:45:40.366Z,52.91
2023-05-14T16:48:07.272Z,52.75
2023-05-14T16:50:33.755Z,52.80
2023-05-14T16:53:00.307Z,53.21
2023-05-14T16:55:26.907Z,52.23
2023-05-14T16:57:53.432Z,52.78
2023-05-14T17:00:20.014Z,53.43
2023-05-14T17:02:49.059Z,54.06
2023-05-14T17:05:17.142Z,54.19
2023-05-14T17:07:43.617Z,55.27
2023-05-14T17:10:10.427Z,55.49
2023-05-14T17:12:36.929Z,55.32
2023-05-14T17:15:05.597Z,56.53
2023-05-14T17:17:33.635Z,58.41
2023-05-14T17:20:00.497Z,60.05
2023-05-14T17:22:27.283Z,61.14
2023-05-14T17:24:53.769Z,61.12
2023-05-14T17:27:20.246Z,62.00
2023-05-14T17:29:48.936Z,62.81
2023-05-14T17:32:17.602Z,62.25
2023-05-14T17:34:44.251Z,62.50
2023-05-14T17:37:10.820Z,62.54
2023-05-14T17:39:37.900Z,62.56
2023-05-14T17:42:04.723Z,62.33
2023-05-14T17:44:31.358Z,63.00
2023-05-14T17:47:47.820Z,61.87
2023-05-14T17:50:18.036Z,63.13
2023-05-14T17:52:46.012Z,63.44
2023-05-14T17:55:17.387Z,63.91
2023-05-14T17:57:44.188Z,64.32
2023-05-14T18:00:11.494Z,64.80
2023-05-14T18:02:38.741Z,65.10
2023-05-14T18:05:06.093Z,65.16
2023-05-14T18:07:32.744Z,65.51
2023-05-14T18:09:59.590Z,65.38
2023-05-14T18:12:27.294Z,65.86
2023-05-14T18:14:54.191Z,65.97
2023-05-14T18:17:20.775Z,66.10
2023-05-14T18:19:47.516Z,66.29
2023-05-14T18:22:14.239Z,66.32
2023-05-14T18:24:40.733Z,66.72
2023-05-14T18:27:10.243Z,66.96
2023-05-14T18:29:36.904Z,67.35
2023-05-14T18:32:03.665Z,67.25
2023-05-14T18:34:30.259Z,67.03
2023-05-14T18:36:58.615Z,67.12
2023-05-14T18:39:25.110Z,67.03
2023-05-14T18:41:51.975Z,66.95
2023-05-14T18:44:19.629Z,66.92
2023-05-14T18:46:46.263Z,67.06
2023-05-14T18:49:12.908Z,67.47
2023-05-14T18:51:40.128Z,67.56
2023-05-14T18:54:06.901Z,67.28
2023-05-14T18:56:36.789Z,67.49
2023-05-14T18:59:04.335Z,67.50
2023-05-14T19:01:31.250Z,67.51
2023-05-14T19:03:57.897Z,67.56
2023-05-14T19:06:24.390Z,68.25
2023-05-14T19:08:51.367Z,67.91
2023-05-14T19:11:20.246Z,67.99
2023-05-14T19:13:47.834Z,67.93
2023-05-14T19:16:14.497Z,67.88
2023-05-14T19:18:41.397Z,68.02
2023-05-14T19:21:08.138Z,68.62
2023-05-14T19:23:36.866Z,68.66
2023-05-14T19:26:04.004Z,69.05
2023-05-14T19:28:30.425Z,69.87
2023-05-14T19:30:57.158Z,69.69
2023-05-14T19:33:23.820Z,70.03
2023-05-14T19:35:50.990Z,69.69
2023-05-14T19:38:17.802Z,69.89
2023-05-14T19:40:45.111Z,70.04
2023-05-14T19:43:12.018Z,69.17
2023-05-14T19:45:39.571Z,69.60
2023-05-14T19:48:06.561Z,69.43
2023-05-14T19:50:33.755Z,69.66
2023-05-14T19:53:01.024Z,69.73
2023-05-14T19:55:27.760Z,70.20
2023-05-14T19:57:54.366Z,70.06
2023-05-14T20:03:10.398Z,70.72
2023-05-14T20:05:53.334Z,70.84
2023-05-14T20:08:33.485Z,71.77
2023-05-14T20:11:00.132Z,71.70
2023-05-14T20:13:26.602Z,71.88
2023-05-14T20:15:55.037Z,72.60
2023-05-14T20:18:22.133Z,72.58
2023-05-14T20:20:50.347Z,72.66
2023-05-14T20:23:16.799Z,72.58
2023-05-14T20:25:44.225Z,72.76
2023-05-14T20:28:10.897Z,72.86
2023-05-14T20:30:37.510Z,73.09
2023-05-14T20:33:04.189Z,72.95
2023-05-14T20:35:31.123Z,73.02
2023-05-14T20:37:57.580Z,73.17
2023-05-14T20:40:24.642Z,73.05
2023-05-14T20:42:51.532Z,73.08
2023-05-14T20:45:18.127Z,73.46
2023-05-14T20:47:44.776Z,73.72
2023-05-14T20:50:11.641Z,74.03
2023-05-14T20:52:38.110Z,73.72
2023-05-14T20:55:05.042Z,73.62
2023-05-14T20:57:31.454Z,73.72
2023-05-14T20:59:57.887Z,74.08
2023-05-14T21:02:24.684Z,73.95
2023-05-14T21:04:51.444Z,74.48
2023-05-14T21:07:18.083Z,74.88
2023-05-14T21:09:46.487Z,75.01
2023-05-14T21:12:13.011Z,74.80
2023-05-14T21:14:39.509Z,74.90
2023-05-14T21:17:07.103Z,74.77
2023-05-14T21:19:33.591Z,75.08
2023-05-14T21:22:00.049Z,75.36
2023-05-14T21:24:26.568Z,75.62
2023-05-14T21:26:53.697Z,75.52
2023-05-14T21:29:20.455Z,75.71
2023-05-14T21:31:48.535Z,75.40
2023-05-14T21:34:15.072Z,75.38
2023-05-14T21:36:41.618Z,75.91
2023-05-14T21:39:08.028Z,76.02
2023-05-14T21:41:34.542Z,76.00
2023-05-14T21:44:01.073Z,75.84
2023-05-14T21:46:28.906Z,76.63
2023-05-14T21:48:56.426Z,76.70
2023-05-14T21:51:22.958Z,77.15
2023-05-14T21:53:49.679Z,77.17
2023-05-14T21:56:16.256Z,77.23
2023-05-14T21:58:42.722Z,77.57
2023-05-14T22:01:11.751Z,77.82
2023-05-14T22:03:38.429Z,77.35
2023-05-14T22:06:05.533Z,77.79
2023-05-14T22:08:32.270Z,78.33
2023-05-14T22:10:58.808Z,78.31
2023-05-14T22:13:25.222Z,78.72
2023-05-14T22:16:01.223Z,78.55
2023-05-14T22:18:36.560Z,78.86
2023-05-14T22:21:03.506Z,79.45
2023-05-14T22:23:35.767Z,79.35
2023-05-14T22:26:02.313Z,79.60
2023-05-14T22:28:28.821Z,79.14
2023-05-14T22:30:56.379Z,79.55
2023-05-14T22:33:22.916Z,79.95
2023-05-14T22:35:49.358Z,79.72
2023-05-14T22:38:15.900Z,79.62
2023-05-14T22:40:42.519Z,80.02
2023-05-14T22:43:08.915Z,79.70
2023-05-14T22:45:36.579Z,80.27
2023-05-14T22:48:03.133Z,80.01
2023-05-14T22:50:29.616Z,79.99
2023-05-14T22:52:56.186Z,80.30
2023-05-14T22:55:23.090Z,80.74
2023-05-14T22:57:49.709Z,80.98
2023-05-14T23:00:16.506Z,80.91
2023-05-14T23:02:43.034Z,81.11
2023-05-14T23:05:09.786Z,81.26
2023-05-14T23:07:36.362Z,81.10
2023-05-14T23:10:02.859Z,81.06
2023-05-14T23:12:29.421Z,81.35
2023-05-14T23:14:56.009Z,81.75
2023-05-14T23:17:22.658Z,81.31
2023-05-14T23:19:49.511Z,81.51
2023-05-14T23:22:16.136Z,81.75
2023-05-14T23:24:42.621Z,81.83
2023-05-14T23:27:09.294Z,81.57
2023-05-14T23:29:35.750Z,82.14
2023-05-14T23:32:02.438Z,81.73
2023-05-14T23:34:28.892Z,81.72
2023-05-14T23:36:55.704Z,81.73
2023-05-14T23:39:22.505Z,82.27
2023-05-14T23:41:49.001Z,82.06
2023-05-14T23:44:16.153Z,82.62
2023-05-14T23:46:42.718Z,82.46
2023-05-14T23:49:09.240Z,82.58
2023-05-14T23:51:36.878Z,82.93
2023-05-14T23:54:03.607Z,82.50
2023-05-14T23:56:30.192Z,82.23
2023-05-14T23:58:56.761Z,82.36
